createdAt,value
2022-12-01T00:01:33.918Z,46.93
2022-12-01T00:04:01.919Z,44.13
2022-12-01T00:06:33.872Z,50.20
2022-12-01T00:09:20.108Z,49.90
2022-12-01T00:11:48.606Z,48.63
2022-12-01T00:14:17.381Z,46.57
2022-12-01T00:16:45.627Z,52.33
2022-12-01T00:19:13.784Z,52.57
2022-12-01T00:21:43.243Z,50.47
2022-12-01T00:24:11.946Z,50.77
2022-12-01T00:26:40.606Z,51.73
2022-12-01T00:29:08.682Z,53.57
2022-12-01T00:31:37.136Z,50.37
2022-12-01T00:34:10.777Z,52.57
2022-12-01T00:36:39.897Z,51.20
2022-12-01T00:39:09.589Z,55.33
2022-12-01T00:41:39.931Z,53.70
2022-12-01T00:44:07.964Z,52.27
2022-12-01T00:46:36.262Z,54.03
2022-12-01T00:49:05.959Z,49.93
2022-12-01T00:51:34.025Z,53.20
2022-12-01T00:54:02.052Z,50.50
2022-12-01T00:56:31.694Z,51.07
2022-12-01T00:58:59.727Z,49.43
2022-12-01T01:01:27.791Z,48.93
2022-12-01T01:03:55.967Z,46.60
2022-12-01T01:06:25.569Z,48.60
2022-12-01T01:08:53.552Z,47.67
2022-12-01T01:11:21.629Z,44.70
2022-12-01T01:13:51.090Z,47.23
2022-12-01T01:16:21.847Z,44.60
2022-12-01T01:18:50.359Z,40.77
2022-12-01T01:21:21.038Z,41.57
2022-12-01T01:23:50.149Z,44.20
2022-12-01T01:26:20.524Z,42.33
2022-12-01T01:28:50.878Z,45.10
2022-12-01T01:31:21.405Z,43.97
2022-12-01T01:33:49.541Z,41.73
2022-12-01T01:36:19.306Z,39.47
2022-12-01T01:38:48.148Z,38.93
2022-12-01T01:41:16.197Z,40.50
2022-12-01T01:43:46.592Z,38.93
2022-12-01T01:46:17.498Z,36.57
2022-12-01T01:48:50.821Z,37.40
2022-12-01T01:51:21.934Z,35.57
2022-12-01T01:53:53.113Z,37.00
2022-12-01T01:56:21.197Z,36.03
2022-12-01T01:58:51.907Z,35.77
2022-12-01T02:01:21.708Z,35.03
2022-12-01T02:03:51.983Z,34.43
2022-12-01T02:06:21.192Z,36.77
2022-12-01T02:08:49.247Z,35.97
2022-12-01T02:11:53.901Z,34.17
2022-12-01T02:14:40.768Z,34.23
2022-12-01T02:17:19.464Z,31.13
2022-12-01T02:20:13.224Z,31.40
2022-12-01T02:22:54.669Z,30.57
2022-12-01T02:25:36.423Z,31.20
2022-12-01T02:28:31.288Z,30.30
2022-12-01T02:31:05.016Z,31.23
2022-12-01T02:33:37.948Z,32.97
2022-12-01T02:36:15.213Z,30.67
2022-12-01T02:38:52.967Z,28.57
2022-12-01T02:41:26.557Z,29.30
2022-12-01T02:44:00.172Z,27.63
2022-12-01T02:46:34.990Z,29.90
2022-12-01T02:49:14.811Z,28.80
2022-12-01T02:51:45.613Z,27.47
2022-12-01T02:54:15.789Z,27.73
2022-12-01T02:56:46.247Z,25.40
2022-12-01T02:59:16.490Z,24.53
2022-12-01T03:01:58.527Z,29.07
2022-12-01T03:04:40.383Z,24.70
2022-12-01T03:07:16.480Z,26.83
2022-12-01T03:09:55.208Z,26.90
2022-12-01T03:12:30.182Z,22.40
2022-12-01T03:15:08.078Z,24.93
2022-12-01T03:17:43.916Z,24.87
2022-12-01T03:20:17.910Z,24.80
2022-12-01T03:22:51.338Z,24.57
2022-12-01T03:25:20.978Z,24.27
2022-12-01T03:28:20.216Z,24.03
2022-12-01T03:30:46.280Z,22.43
2022-12-01T03:33:22.751Z,23.67
2022-12-01T03:35:55.094Z,22.07
2022-12-01T03:38:26.355Z,23.03
2022-12-01T03:40:59.293Z,22.23
2022-12-01T03:43:32.588Z,24.63
2022-12-01T03:46:05.839Z,22.30
2022-12-01T03:48:36.012Z,22.30
2022-12-01T03:51:12.583Z,22.73
2022-12-01T03:53:49.454Z,23.33
2022-12-01T03:56:21.993Z,22.17
2022-12-01T03:58:52.343Z,23.57
2022-12-01T04:01:22.272Z,22.83
2022-12-01T04:03:51.713Z,22.53
2022-12-01T04:06:20.017Z,22.60
2022-12-01T04:08:48.012Z,24.27
2022-12-01T04:11:33.366Z,23.67
2022-12-01T04:14:01.439Z,23.83
2022-12-01T04:16:29.880Z,21.10
2022-12-01T04:18:59.342Z,25.53
2022-12-01T04:21:27.523Z,23.37
2022-12-01T04:24:01.155Z,21.10
2022-12-01T04:26:29.938Z,22.03
2022-12-01T04:28:57.916Z,22.10
2022-12-01T04:31:25.998Z,24.37
2022-12-01T04:33:55.993Z,22.90
2022-12-01T04:36:25.442Z,22.67
2022-12-01T04:38:53.500Z,23.70
2022-12-01T04:41:21.480Z,23.63
2022-12-01T04:43:49.520Z,23.63
2022-12-01T04:46:17.553Z,20.33
2022-12-01T04:48:45.566Z,23.77
2022-12-01T04:51:13.849Z,19.70
2022-12-01T04:53:43.199Z,23.47
2022-12-01T04:56:11.407Z,24.10
2022-12-01T04:58:42.363Z,23.73
2022-12-01T05:01:13.910Z,23.40
2022-12-01T05:03:44.492Z,26.50
2022-12-01T05:06:14.442Z,23.37
2022-12-01T05:08:44.871Z,27.57
2022-12-01T05:11:16.618Z,22.77
2022-12-01T05:13:46.583Z,21.57
2022-12-01T05:16:16.254Z,25.53
2022-12-01T05:18:48.030Z,24.10
2022-12-01T05:21:15.199Z,23.50
2022-12-01T05:23:45.576Z,29.33
2022-12-01T05:26:13.628Z,24.37
2022-12-01T05:28:41.862Z,26.87
2022-12-01T05:31:10.143Z,28.67
2022-12-01T05:33:38.196Z,24.53
2022-12-01T05:36:06.908Z,25.70
2022-12-01T05:38:34.915Z,26.73
2022-12-01T05:41:04.579Z,23.83
2022-12-01T05:43:32.596Z,23.43
2022-12-01T05:46:00.758Z,24.10
2022-12-01T05:48:28.893Z,23.00
2022-12-01T05:50:56.975Z,23.07
2022-12-01T05:53:25.059Z,22.63
2022-12-01T05:55:54.371Z,22.87
2022-12-01T05:58:23.977Z,24.67
2022-12-01T06:00:53.730Z,23.47
2022-12-01T06:03:21.743Z,25.83
2022-12-01T06:05:52.407Z,22.23
2022-12-01T06:08:20.583Z,19.47
2022-12-01T06:10:48.892Z,20.77
2022-12-01T06:13:16.916Z,22.17
2022-12-01T06:15:46.291Z,20.60
2022-12-01T06:18:14.252Z,21.73
2022-12-01T06:20:42.274Z,23.07
2022-12-01T06:23:10.276Z,23.40
2022-12-01T06:25:38.227Z,20.90
2022-12-01T06:28:06.246Z,22.70
2022-12-01T06:30:34.234Z,21.27
2022-12-01T06:33:04.946Z,20.17
2022-12-01T06:35:33.190Z,21.27
2022-12-01T06:38:01.206Z,20.50
2022-12-01T06:40:29.455Z,24.73
2022-12-01T06:43:00.830Z,32.87
2022-12-01T06:45:28.984Z,42.10
2022-12-01T06:47:58.781Z,25.77
2022-12-01T06:50:28.185Z,21.80
2022-12-01T06:52:59.233Z,20.67
2022-12-01T06:55:27.414Z,18.17
2022-12-01T06:57:55.779Z,20.47
2022-12-01T07:00:24.203Z,20.60
2022-12-01T07:02:52.335Z,20.73
2022-12-01T07:05:20.378Z,19.60
2022-12-01T07:07:52.685Z,19.93
2022-12-01T07:10:23.053Z,17.57
2022-12-01T07:12:52.040Z,19.07
2022-12-01T07:15:20.160Z,18.83
2022-12-01T07:17:48.150Z,21.37
2022-12-01T07:20:16.266Z,22.20
2022-12-01T07:22:44.284Z,18.60
2022-12-01T07:25:13.755Z,19.03
2022-12-01T07:27:44.321Z,19.67
2022-12-01T07:30:12.903Z,21.40
2022-12-01T07:32:41.382Z,20.63
2022-12-01T07:35:17.608Z,21.97
2022-12-01T07:37:45.639Z,20.87
2022-12-01T07:40:15.154Z,20.07
2022-12-01T07:42:43.388Z,20.23
2022-12-01T07:45:11.644Z,20.03
2022-12-01T07:47:39.795Z,22.87
2022-12-01T07:50:09.355Z,21.40
2022-12-01T07:52:37.369Z,21.67
2022-12-01T07:55:06.012Z,20.00
2022-12-01T07:57:35.404Z,19.87
2022-12-01T08:00:04.232Z,19.83
2022-12-01T08:02:32.243Z,22.57
2022-12-01T08:05:00.272Z,31.33
2022-12-01T08:07:29.970Z,25.67
2022-12-01T08:09:58.162Z,27.40
2022-12-01T08:12:26.272Z,19.33
2022-12-01T08:14:55.593Z,19.30
2022-12-01T08:17:23.633Z,19.00
2022-12-01T08:19:51.804Z,19.33
2022-12-01T08:22:19.852Z,20.43
2022-12-01T08:24:48.072Z,18.93
2022-12-01T08:27:16.036Z,18.57
2022-12-01T08:29:43.990Z,18.03
2022-12-01T08:32:18.390Z,18.37
2022-12-01T08:34:52.987Z,19.10
2022-12-01T08:37:21.384Z,20.63
2022-12-01T08:39:49.656Z,18.70
2022-12-01T08:42:17.784Z,18.20
2022-12-01T08:44:45.853Z,20.43
2022-12-01T08:47:18.746Z,19.57
2022-12-01T08:49:47.296Z,19.00
2022-12-01T08:52:15.623Z,18.63
2022-12-01T08:54:43.632Z,19.53
2022-12-01T08:57:11.724Z,20.97
2022-12-01T08:59:39.749Z,21.67
2022-12-01T09:02:18.120Z,20.33
2022-12-01T09:04:47.480Z,20.57
2022-12-01T09:07:19.078Z,21.33
2022-12-01T09:09:51.441Z,19.77
2022-12-01T09:12:19.539Z,20.87
2022-12-01T09:14:49.479Z,20.60
2022-12-01T09:17:18.525Z,19.60
2022-12-01T09:19:48.356Z,23.37
2022-12-01T09:22:16.612Z,23.00
2022-12-01T09:24:45.095Z,20.77
2022-12-01T09:27:15.951Z,19.80
2022-12-01T09:29:43.934Z,24.13
2022-12-01T09:32:11.945Z,20.00
2022-12-01T09:34:39.933Z,23.50
2022-12-01T09:37:09.333Z,21.93
2022-12-01T09:39:37.351Z,25.10
2022-12-01T09:42:09.528Z,24.27
2022-12-01T09:44:42.501Z,25.67
2022-12-01T09:47:19.515Z,22.23
2022-12-01T09:49:55.296Z,22.07
2022-12-01T09:52:27.424Z,22.80
2022-12-01T09:54:56.635Z,21.57
2022-12-01T09:57:31.910Z,22.90
2022-12-01T10:00:00.916Z,20.00
2022-12-01T10:02:34.507Z,21.90
2022-12-01T10:05:06.146Z,19.10
2022-12-01T10:07:39.924Z,18.13
2022-12-01T10:10:13.105Z,20.30
2022-12-01T10:12:43.668Z,20.03
2022-12-01T10:15:28.438Z,19.23
2022-12-01T10:18:12.456Z,19.90
2022-12-01T10:20:46.716Z,19.80
2022-12-01T10:23:36.412Z,20.50
2022-12-01T10:26:14.091Z,21.40
2022-12-01T10:29:09.573Z,24.73
2022-12-01T10:31:49.680Z,27.10
2022-12-01T10:34:21.028Z,23.13
2022-12-01T10:36:49.312Z,20.63
2022-12-01T10:39:20.916Z,18.43
2022-12-01T10:41:50.069Z,15.73
2022-12-01T10:44:19.595Z,19.10
2022-12-01T10:46:51.148Z,16.63
2022-12-01T10:49:20.851Z,16.97
2022-12-01T10:51:54.931Z,15.53
2022-12-01T10:54:32.287Z,18.10
2022-12-01T10:57:00.451Z,15.63
2022-12-01T10:59:32.740Z,15.07
2022-12-01T11:02:02.389Z,17.40
2022-12-01T11:04:45.189Z,15.30
2022-12-01T11:07:23.108Z,17.70
2022-12-01T11:10:07.110Z,17.63
2022-12-01T11:12:35.662Z,14.40
2022-12-01T11:15:04.074Z,20.33
2022-12-01T11:17:36.054Z,17.93
2022-12-01T11:20:31.100Z,17.17
2022-12-01T11:23:25.383Z,18.37
2022-12-01T11:26:13.554Z,18.37
2022-12-01T11:28:50.950Z,16.50
2022-12-01T11:31:20.242Z,17.67
2022-12-01T11:33:51.842Z,19.67
2022-12-01T11:36:27.036Z,21.60
2022-12-01T11:39:00.594Z,16.90
2022-12-01T11:41:39.012Z,17.37
2022-12-01T11:44:43.243Z,17.57
2022-12-01T11:47:23.354Z,18.97
2022-12-01T11:50:00.211Z,17.60
2022-12-01T11:52:31.091Z,20.33
2022-12-01T11:55:08.236Z,19.80
2022-12-01T11:57:43.648Z,20.40
2022-12-01T12:00:15.672Z,20.53
2022-12-01T12:02:51.831Z,19.53
2022-12-01T12:05:46.387Z,22.13
2022-12-01T12:08:27.715Z,23.37
2022-12-01T12:11:08.004Z,23.10
2022-12-01T12:14:05.038Z,20.37
2022-12-01T12:16:48.206Z,18.83
2022-12-01T12:19:33.951Z,17.50
2022-12-01T12:22:17.671Z,18.80
2022-12-01T12:24:59.414Z,20.07
2022-12-01T12:27:40.417Z,18.10
2022-12-01T12:30:21.413Z,19.33
2022-12-01T12:33:29.732Z,19.80
2022-12-01T12:36:08.133Z,22.07
2022-12-01T12:38:47.937Z,19.27
2022-12-01T12:41:29.451Z,18.77
2022-12-01T12:44:18.664Z,19.27
2022-12-01T12:46:58.677Z,21.50
2022-12-01T12:49:38.438Z,21.90
2022-12-01T12:52:12.051Z,21.57
2022-12-01T12:54:47.520Z,22.27
2022-12-01T12:57:28.285Z,22.37
2022-12-01T13:00:00.367Z,21.00
2022-12-01T13:02:36.456Z,24.70
2022-12-01T13:05:10.819Z,20.47
2022-12-01T13:07:44.070Z,19.87
2022-12-01T13:10:23.784Z,19.73
2022-12-01T13:12:58.907Z,18.17
2022-12-01T13:15:28.371Z,16.90
2022-12-01T13:18:02.335Z,17.50
2022-12-01T13:20:32.138Z,18.07
2022-12-01T13:23:02.274Z,18.33
2022-12-01T13:25:38.166Z,17.07
2022-12-01T13:28:19.846Z,17.77
2022-12-01T13:31:02.251Z,17.57
2022-12-01T13:33:33.356Z,16.30
2022-12-01T13:36:38.120Z,20.13
2022-12-01T13:39:00.417Z,21.40
2022-12-01T13:41:33.555Z,20.73
2022-12-01T13:44:05.384Z,21.83
2022-12-01T13:46:56.263Z,19.93
2022-12-01T13:49:39.798Z,17.50
2022-12-01T13:52:33.665Z,19.73
2022-12-01T13:55:22.742Z,19.37
2022-12-01T13:58:13.998Z,19.30
2022-12-01T14:00:43.043Z,16.83
2022-12-01T14:03:34.385Z,19.17
2022-12-01T14:06:11.552Z,17.30
2022-12-01T14:08:47.099Z,17.37
2022-12-01T14:11:24.941Z,19.73
2022-12-01T14:13:56.883Z,20.33
2022-12-01T14:16:25.633Z,17.97
2022-12-01T14:18:56.811Z,17.47
2022-12-01T14:21:47.236Z,16.73
2022-12-01T14:24:24.548Z,16.83
2022-12-01T14:26:53.784Z,16.17
2022-12-01T14:29:35.097Z,15.73
2022-12-01T14:32:21.840Z,17.07
2022-12-01T14:35:12.372Z,14.10
2022-12-01T14:37:49.489Z,14.77
2022-12-01T14:40:23.723Z,14.50
2022-12-01T14:43:13.751Z,20.37
2022-12-01T14:45:48.647Z,15.07
2022-12-01T14:48:23.410Z,13.47
2022-12-01T14:50:56.316Z,14.70
2022-12-01T14:53:28.954Z,13.53
2022-12-01T14:55:58.808Z,12.43
2022-12-01T14:58:28.956Z,13.70
2022-12-01T15:01:01.787Z,13.53
2022-12-01T15:03:36.251Z,11.47
2022-12-01T15:06:04.603Z,13.50
2022-12-01T15:08:53.425Z,12.33
2022-12-01T15:11:26.440Z,12.53
2022-12-01T15:13:55.868Z,17.23
2022-12-01T15:16:25.851Z,13.77
2022-12-01T15:18:54.481Z,13.83
2022-12-01T15:21:26.062Z,16.07
2022-12-01T15:23:57.848Z,13.50
2022-12-01T15:26:30.455Z,12.53
2022-12-01T15:29:16.383Z,13.13
2022-12-01T15:31:46.157Z,13.53
2022-12-01T15:34:18.169Z,14.00
2022-12-01T15:36:47.091Z,12.43
2022-12-01T15:39:19.831Z,11.80
2022-12-01T15:41:53.815Z,12.63
2022-12-01T15:44:27.961Z,13.60
2022-12-01T15:46:56.026Z,13.77
2022-12-01T15:49:29.522Z,13.00
2022-12-01T15:52:06.848Z,13.27
2022-12-01T15:54:37.649Z,16.03
2022-12-01T15:57:06.919Z,15.40
2022-12-01T15:59:38.886Z,15.30
2022-12-01T16:02:25.069Z,15.37
2022-12-01T16:05:05.768Z,17.03
2022-12-01T16:08:10.851Z,18.97
2022-12-01T16:10:34.804Z,18.87
2022-12-01T16:13:42.128Z,20.87
2022-12-01T16:16:39.017Z,20.37
2022-12-01T16:19:25.705Z,17.97
2022-12-01T16:21:56.697Z,15.57
2022-12-01T16:24:29.783Z,17.13
2022-12-01T16:27:02.397Z,17.63
2022-12-01T16:29:35.043Z,16.10
2022-12-01T16:32:20.387Z,17.63
2022-12-01T16:34:50.225Z,16.00
2022-12-01T16:37:18.484Z,16.97
2022-12-01T16:39:46.445Z,17.83
2022-12-01T16:42:17.256Z,16.17
2022-12-01T16:44:46.494Z,17.13
2022-12-01T16:47:17.082Z,21.63
2022-12-01T16:49:45.275Z,27.30
2022-12-01T16:55:02.206Z,23.10
2022-12-01T16:57:32.814Z,21.97
2022-12-01T17:00:01.024Z,20.73
2022-12-01T17:02:29.088Z,20.53
2022-12-01T17:04:57.215Z,19.80
2022-12-01T17:07:25.363Z,19.70
2022-12-01T17:09:53.556Z,23.23
2022-12-01T17:12:25.198Z,19.57
2022-12-01T17:14:54.660Z,21.07
2022-12-01T17:17:22.756Z,18.33
2022-12-01T17:19:53.685Z,19.70
2022-12-01T17:22:21.852Z,20.90
2022-12-01T17:24:50.222Z,18.20
2022-12-01T17:27:19.667Z,19.63
2022-12-01T17:29:47.751Z,19.87
2022-12-01T17:32:17.130Z,21.10
2022-12-01T17:34:45.126Z,20.70
2022-12-01T17:37:20.538Z,21.50
2022-12-01T17:39:49.221Z,23.70
2022-12-01T17:42:17.448Z,22.63
2022-12-01T17:44:45.490Z,22.80
2022-12-01T17:47:13.876Z,22.30
2022-12-01T17:49:43.277Z,26.90
2022-12-01T17:52:11.348Z,24.87
2022-12-01T17:54:39.481Z,23.70
2022-12-01T17:57:08.370Z,23.87
2022-12-01T17:59:37.443Z,23.57
2022-12-01T18:02:06.079Z,26.03
2022-12-01T18:04:34.914Z,26.90
2022-12-01T18:07:04.504Z,24.40
2022-12-01T18:09:32.652Z,25.93
2022-12-01T18:12:01.606Z,24.50
2022-12-01T18:14:32.271Z,23.00
2022-12-01T18:17:00.344Z,20.93
2022-12-01T18:19:28.383Z,21.50
2022-12-01T18:21:56.476Z,18.50
2022-12-01T18:24:28.444Z,17.50
2022-12-01T18:26:56.871Z,21.17
2022-12-01T18:29:28.515Z,21.57
2022-12-01T18:31:57.259Z,19.17
2022-12-01T18:34:25.568Z,19.90
2022-12-01T18:36:54.154Z,23.10
2022-12-01T18:39:22.208Z,26.30
2022-12-01T18:41:51.686Z,24.13
2022-12-01T18:44:19.730Z,23.77
2022-12-01T18:46:47.851Z,28.07
2022-12-01T18:49:15.907Z,24.63
2022-12-01T18:51:43.904Z,23.87
2022-12-01T18:54:16.895Z,19.97
2022-12-01T18:56:44.921Z,19.67
2022-12-01T18:59:17.181Z,20.60
2022-12-01T19:01:47.416Z,20.47
2022-12-01T19:04:16.510Z,18.90
2022-12-01T19:06:46.713Z,17.83
2022-12-01T19:09:16.435Z,20.20
2022-12-01T19:11:45.060Z,17.43
2022-12-01T19:14:17.291Z,19.80
2022-12-01T19:16:45.864Z,21.57
2022-12-01T19:19:16.866Z,19.80
2022-12-01T19:21:45.924Z,21.47
2022-12-01T19:24:15.045Z,23.40
2022-12-01T19:26:43.134Z,23.70
2022-12-01T19:29:11.164Z,23.07
2022-12-01T19:31:40.717Z,21.90
2022-12-01T19:34:08.942Z,20.37
2022-12-01T19:36:36.982Z,21.83
2022-12-01T19:39:07.775Z,20.13
2022-12-01T19:41:36.068Z,19.73
2022-12-01T19:44:04.101Z,21.30
2022-12-01T19:46:32.158Z,18.27
2022-12-01T19:49:02.622Z,18.63
2022-12-01T19:51:34.999Z,18.87
2022-12-01T19:54:03.620Z,17.97
2022-12-01T19:56:32.253Z,19.87
2022-12-01T19:59:00.540Z,22.17
2022-12-01T20:01:29.225Z,17.60
2022-12-01T20:03:57.335Z,21.50
2022-12-01T20:06:28.483Z,21.00
2022-12-01T20:08:58.245Z,21.10
2022-12-01T20:11:26.841Z,23.03
2022-12-01T20:13:56.699Z,19.27
2022-12-01T20:16:26.026Z,18.27
2022-12-01T20:18:55.160Z,22.13
2022-12-01T20:21:26.843Z,21.13
2022-12-01T20:23:57.996Z,20.30
2022-12-01T20:26:30.705Z,21.23
2022-12-01T20:29:02.050Z,18.60
2022-12-01T20:31:33.986Z,20.03
2022-12-01T20:34:04.471Z,20.67
2022-12-01T20:36:36.352Z,20.17
2022-12-01T20:39:05.382Z,18.80
2022-12-01T20:41:33.556Z,20.80
2022-12-01T20:44:07.018Z,22.27
2022-12-01T20:46:41.034Z,20.47
2022-12-01T20:49:10.539Z,20.20
2022-12-01T20:51:40.071Z,22.47
2022-12-01T20:56:58.712Z,21.73
2022-12-01T20:59:26.751Z,20.73
2022-12-01T21:01:55.036Z,21.40
2022-12-01T21:04:23.092Z,22.63
2022-12-01T21:06:55.701Z,20.80
2022-12-01T21:09:23.762Z,20.93
2022-12-01T21:12:09.561Z,20.90
2022-12-01T21:14:41.088Z,20.83
2022-12-01T21:17:22.062Z,22.13
2022-12-01T21:19:56.470Z,20.87
2022-12-01T21:22:26.329Z,20.27
2022-12-01T21:25:02.644Z,20.53
2022-12-01T21:27:31.944Z,21.67
2022-12-01T21:29:59.955Z,26.93
2022-12-01T21:32:31.607Z,23.67
2022-12-01T21:35:09.131Z,23.87
2022-12-01T21:37:41.582Z,21.70
2022-12-01T21:40:17.872Z,21.23
2022-12-01T21:42:46.197Z,20.73
2022-12-01T21:45:19.940Z,22.10
2022-12-01T21:47:47.941Z,23.63
2022-12-01T21:50:21.049Z,25.50
2022-12-01T21:52:53.316Z,21.70
2022-12-01T21:55:39.703Z,23.83
2022-12-01T21:58:25.381Z,22.47
2022-12-01T22:01:00.046Z,22.53
2022-12-01T22:03:33.737Z,21.37
2022-12-01T22:06:28.827Z,23.50
2022-12-01T22:08:59.855Z,24.37
2022-12-01T22:11:31.725Z,21.37
2022-12-01T22:14:11.972Z,23.10
2022-12-01T22:16:43.283Z,20.90
2022-12-01T22:19:26.030Z,22.77
2022-12-01T22:22:00.592Z,24.67
2022-12-01T22:24:34.394Z,23.77
2022-12-01T22:27:18.202Z,21.97
2022-12-01T22:29:47.600Z,23.93
2022-12-01T22:32:37.319Z,23.20
2022-12-01T22:35:24.243Z,23.13
2022-12-01T22:37:59.683Z,22.00
2022-12-01T22:40:38.552Z,23.67
2022-12-01T22:43:34.155Z,22.77
2022-12-01T22:46:12.576Z,23.63
2022-12-01T22:48:42.697Z,23.67
2022-12-01T22:51:29.347Z,25.80
2022-12-01T22:54:20.347Z,23.03
2022-12-01T22:56:51.431Z,21.60
2022-12-01T22:59:22.256Z,23.10
2022-12-01T23:01:52.551Z,20.53
2022-12-01T23:04:24.900Z,21.63
2022-12-01T23:07:02.640Z,19.47
2022-12-01T23:09:37.225Z,20.00
2022-12-01T23:12:28.701Z,22.77
2022-12-01T23:14:59.282Z,21.43
2022-12-01T23:17:29.134Z,21.17
2022-12-01T23:20:13.954Z,21.37
2022-12-01T23:22:42.001Z,20.33
2022-12-01T23:25:21.144Z,24.13
2022-12-01T23:27:53.509Z,24.40
2022-12-01T23:30:23.023Z,21.80
2022-12-01T23:33:12.953Z,20.33
2022-12-01T23:35:45.654Z,20.20
2022-12-01T23:38:17.478Z,22.67
2022-12-01T23:40:46.013Z,20.53
2022-12-01T23:43:28.517Z,18.90
2022-12-01T23:46:04.182Z,20.20
2022-12-01T23:48:36.811Z,20.10
2022-12-01T23:51:05.659Z,22.07
2022-12-01T23:53:34.225Z,20.03
2022-12-01T23:56:06.663Z,17.50
2022-12-01T23:58:36.596Z,21.03
